Skip Navigation Links Skip Navigation Links

Current Weather

Travis AFB, Fairfield, Calif.

For information only: do not use for flight planning or navigation.
Latest weather
Observation time Tuesday, October 19, 2021 12:58 AM PDT
Local time Tuesday, October 19, 2021 1:41 AM PDT
Flight conditions Visual Meteorological Conditions
Winds
Wind direction South-Southwest (210°)
Wind speed 6 mph
Visibility 10 mi.
Sky condition
Ceiling unlimited
Sky clear
Temperature 42°F
Dewpoint 36°F
Altimeter 30.03 in.Hg
Derived measurements
Relative humidity 81%
Wind chill 38°F
Density altitude -1102 ft.
Sea-level pressure 30.05 in.Hg
Climate data
Temperature minimum, last 24 hours 42°F
Temperature maximum, last 24 hours 72°F
Remarks
System requires maintenance.
Automated weather observing station with precipitation discriminator.
METAR KSUU 190758Z 21005KT 10SM CLR 06/03 A3003 RMK AO2A SLP176 T00550025 402210054 $

Settings

Location code

InnerDrive.Weather 4.0.6770.0 Release CLR 4.0.30319.42000
Copyright ©2018 Inner Drive Technology. All rights reserved. Portions Copyright ©1986-2018 David Braverman.

Find weather

Site navigation


Skip Navigation Links

Place info

Page info

PayPal - The safer, easier way to pay online!

Return home.

Copyright ©2021 Inner Drive Technology. Purveyors of fine, hand-crafted computer software. Page printed 2021-10-19T08:41:42 UTC.